sensor_id;sensor_type;location;lat;lon;timestamp;P1;durP1;ratioP1;P2;durP2;ratioP2
19193;SDS011;9729;52.296;13.260;2023-07-08T00:00:14;20.10;;;9.43;;
19193;SDS011;9729;52.296;13.260;2023-07-08T00:02:42;16.40;;;9.23;;
19193;SDS011;9729;52.296;13.260;2023-07-08T00:05:09;12.30;;;9.47;;
19193;SDS011;9729;52.296;13.260;2023-07-08T00:07:36;12.27;;;8.73;;
19193;SDS011;9729;52.296;13.260;2023-07-08T00:10:07;12.33;;;9.00;;
19193;SDS011;9729;52.296;13.260;2023-07-08T00:12:37;14.53;;;10.67;;
19193;SDS011;9729;52.296;13.260;2023-07-08T00:15:03;18.40;;;10.17;;
19193;SDS011;9729;52.296;13.260;2023-07-08T00:17:32;16.67;;;11.00;;
19193;SDS011;9729;52.296;13.260;2023-07-08T00:19:58;16.40;;;10.63;;
19193;SDS011;9729;52.296;13.260;2023-07-08T00:22:24;18.73;;;10.83;;
19193;SDS011;9729;52.296;13.260;2023-07-08T00:24:51;15.87;;;11.30;;
19193;SDS011;9729;52.296;13.260;2023-07-08T00:27:17;13.53;;;10.60;;
19193;SDS011;9729;52.296;13.260;2023-07-08T00:29:43;13.67;;;10.33;;
19193;SDS011;9729;52.296;13.260;2023-07-08T00:32:10;14.93;;;10.07;;
19193;SDS011;9729;52.296;13.260;2023-07-08T00:34:39;17.63;;;10.83;;
19193;SDS011;9729;52.296;13.260;2023-07-08T00:37:07;13.90;;;10.57;;
19193;SDS011;9729;52.296;13.260;2023-07-08T00:39:35;15.63;;;9.83;;
19193;SDS011;9729;52.296;13.260;2023-07-08T00:42:01;13.73;;;10.30;;
19193;SDS011;9729;52.296;13.260;2023-07-08T00:44:32;17.30;;;10.43;;
19193;SDS011;9729;52.296;13.260;2023-07-08T00:47:02;16.87;;;10.80;;
19193;SDS011;9729;52.296;13.260;2023-07-08T00:49:32;19.73;;;12.40;;
19193;SDS011;9729;52.296;13.260;2023-07-08T00:52:18;25.23;;;14.83;;
19193;SDS011;9729;52.296;13.260;2023-07-08T00:54:46;26.30;;;15.50;;
19193;SDS011;9729;52.296;13.260;2023-07-08T00:57:12;23.50;;;14.37;;
19193;SDS011;9729;52.296;13.260;2023-07-08T00:59:39;18.90;;;13.47;;
19193;SDS011;9729;52.296;13.260;2023-07-08T01:02:08;19.63;;;13.50;;
19193;SDS011;9729;52.296;13.260;2023-07-08T01:04:37;14.97;;;11.93;;
19193;SDS011;9729;52.296;13.260;2023-07-08T01:07:07;15.20;;;11.47;;
19193;SDS011;9729;52.296;13.260;2023-07-08T01:09:36;14.07;;;10.93;;
19193;SDS011;9729;52.296;13.260;2023-07-08T01:12:05;15.77;;;10.53;;
19193;SDS011;9729;52.296;13.260;2023-07-08T01:14:35;14.10;;;10.33;;
19193;SDS011;9729;52.296;13.260;2023-07-08T01:17:02;27.67;;;11.50;;
19193;SDS011;9729;52.296;13.260;2023-07-08T01:19:28;12.13;;;9.47;;
19193;SDS011;9729;52.296;13.260;2023-07-08T01:21:59;12.87;;;9.70;;
19193;SDS011;9729;52.296;13.260;2023-07-08T01:24:26;16.13;;;10.13;;
19193;SDS011;9729;52.296;13.260;2023-07-08T01:26:53;12.93;;;10.07;;
19193;SDS011;9729;52.296;13.260;2023-07-08T01:29:20;14.33;;;9.97;;
19193;SDS011;9729;52.296;13.260;2023-07-08T01:31:46;12.10;;;9.90;;
19193;SDS011;9729;52.296;13.260;2023-07-08T01:34:14;13.63;;;9.70;;
19193;SDS011;9729;52.296;13.260;2023-07-08T01:36:41;17.00;;;9.57;;
19193;SDS011;9729;52.296;13.260;2023-07-08T01:39:13;16.50;;;10.13;;
19193;SDS011;9729;52.296;13.260;2023-07-08T01:41:40;15.33;;;10.77;;
19193;SDS011;9729;52.296;13.260;2023-07-08T01:44:18;12.60;;;10.03;;
19193;SDS011;9729;52.296;13.260;2023-07-08T01:46:46;17.13;;;10.80;;
19193;SDS011;9729;52.296;13.260;2023-07-08T01:49:12;19.70;;;10.40;;
19193;SDS011;9729;52.296;13.260;2023-07-08T01:51:39;12.83;;;9.37;;
19193;SDS011;9729;52.296;13.260;2023-07-08T01:54:05;12.80;;;9.13;;
19193;SDS011;9729;52.296;13.260;2023-07-08T01:56:33;14.20;;;9.47;;
19193;SDS011;9729;52.296;13.260;2023-07-08T01:58:59;14.73;;;9.40;;
19193;SDS011;9729;52.296;13.260;2023-07-08T02:01:25;13.47;;;10.00;;
19193;SDS011;9729;52.296;13.260;2023-07-08T02:03:52;12.47;;;9.50;;
19193;SDS011;9729;52.296;13.260;2023-07-08T02:06:18;16.37;;;9.50;;
19193;SDS011;9729;52.296;13.260;2023-07-08T02:08:44;14.30;;;9.13;;
19193;SDS011;9729;52.296;13.260;2023-07-08T02:11:11;14.33;;;9.63;;
19193;SDS011;9729;52.296;13.260;2023-07-08T02:13:38;15.37;;;10.53;;
19193;SDS011;9729;52.296;13.260;2023-07-08T02:16:06;12.77;;;9.27;;
19193;SDS011;9729;52.296;13.260;2023-07-08T02:18:32;13.07;;;10.07;;
19193;SDS011;9729;52.296;13.260;2023-07-08T02:20:58;13.03;;;9.43;;
19193;SDS011;9729;52.296;13.260;2023-07-08T02:23:25;15.80;;;9.33;;
19193;SDS011;9729;52.296;13.260;2023-07-08T02:25:52;14.70;;;9.80;;
19193;SDS011;9729;52.296;13.260;2023-07-08T02:28:18;15.60;;;9.63;;
19193;SDS011;9729;52.296;13.260;2023-07-08T02:30:46;18.23;;;9.07;;
19193;SDS011;9729;52.296;13.260;2023-07-08T02:33:12;12.07;;;9.40;;
19193;SDS011;9729;52.296;13.260;2023-07-08T02:35:39;12.53;;;8.83;;
19193;SDS011;9729;52.296;13.260;2023-07-08T02:38:06;14.50;;;10.33;;
19193;SDS011;9729;52.296;13.260;2023-07-08T02:40:32;25.57;;;10.30;;
19193;SDS011;9729;52.296;13.260;2023-07-08T02:42:58;12.90;;;10.07;;
19193;SDS011;9729;52.296;13.260;2023-07-08T02:45:25;13.57;;;10.30;;
19193;SDS011;9729;52.296;13.260;2023-07-08T02:47:52;14.13;;;9.93;;
19193;SDS011;9729;52.296;13.260;2023-07-08T02:50:19;11.83;;;9.47;;
19193;SDS011;9729;52.296;13.260;2023-07-08T02:52:45;14.50;;;9.67;;
19193;SDS011;9729;52.296;13.260;2023-07-08T02:55:11;13.90;;;10.50;;
19193;SDS011;9729;52.296;13.260;2023-07-08T02:57:38;12.57;;;9.70;;
19193;SDS011;9729;52.296;13.260;2023-07-08T03:00:05;12.10;;;10.10;;
19193;SDS011;9729;52.296;13.260;2023-07-08T03:02:32;14.50;;;9.67;;
19193;SDS011;9729;52.296;13.260;2023-07-08T03:05:00;13.10;;;10.53;;
19193;SDS011;9729;52.296;13.260;2023-07-08T03:07:26;15.20;;;9.77;;
19193;SDS011;9729;52.296;13.260;2023-07-08T03:09:52;10.97;;;8.63;;
19193;SDS011;9729;52.296;13.260;2023-07-08T03:12:19;11.17;;;9.57;;
19193;SDS011;9729;52.296;13.260;2023-07-08T03:14:45;12.57;;;9.07;;
19193;SDS011;9729;52.296;13.260;2023-07-08T03:17:11;10.00;;;8.63;;
19193;SDS011;9729;52.296;13.260;2023-07-08T03:19:38;14.40;;;9.80;;
19193;SDS011;9729;52.296;13.260;2023-07-08T03:22:05;11.67;;;9.27;;
19193;SDS011;9729;52.296;13.260;2023-07-08T03:24:32;10.77;;;8.90;;
19193;SDS011;9729;52.296;13.260;2023-07-08T03:26:59;9.80;;;8.37;;
19193;SDS011;9729;52.296;13.260;2023-07-08T03:29:30;12.93;;;9.30;;
19193;SDS011;9729;52.296;13.260;2023-07-08T03:31:56;18.50;;;9.03;;
19193;SDS011;9729;52.296;13.260;2023-07-08T03:34:23;11.53;;;9.83;;
19193;SDS011;9729;52.296;13.260;2023-07-08T03:36:49;16.57;;;9.10;;
19193;SDS011;9729;52.296;13.260;2023-07-08T03:39:21;14.40;;;8.63;;
19193;SDS011;9729;52.296;13.260;2023-07-08T03:41:48;13.20;;;8.80;;
19193;SDS011;9729;52.296;13.260;2023-07-08T03:44:15;12.60;;;8.60;;
19193;SDS011;9729;52.296;13.260;2023-07-08T03:46:42;15.97;;;8.73;;
19193;SDS011;9729;52.296;13.260;2023-07-08T03:49:09;14.93;;;8.73;;
19193;SDS011;9729;52.296;13.260;2023-07-08T03:51:35;11.37;;;8.37;;
19193;SDS011;9729;52.296;13.260;2023-07-08T03:54:03;14.97;;;9.83;;
19193;SDS011;9729;52.296;13.260;2023-07-08T03:56:30;11.67;;;8.80;;
19193;SDS011;9729;52.296;13.260;2023-07-08T03:58:57;12.50;;;9.23;;
19193;SDS011;9729;52.296;13.260;2023-07-08T04:01:24;9.13;;;8.07;;
19193;SDS011;9729;52.296;13.260;2023-07-08T04:03:51;12.00;;;8.33;;
19193;SDS011;9729;52.296;13.260;2023-07-08T04:06:18;11.17;;;8.10;;
19193;SDS011;9729;52.296;13.260;2023-07-08T04:08:45;10.33;;;8.63;;
19193;SDS011;9729;52.296;13.260;2023-07-08T04:11:11;10.27;;;8.73;;
19193;SDS011;9729;52.296;13.260;2023-07-08T04:13:40;10.53;;;8.37;;
19193;SDS011;9729;52.296;13.260;2023-07-08T04:16:07;10.07;;;7.60;;
19193;SDS011;9729;52.296;13.260;2023-07-08T04:18:39;10.40;;;7.93;;
19193;SDS011;9729;52.296;13.260;2023-07-08T04:21:06;14.83;;;8.03;;
19193;SDS011;9729;52.296;13.260;2023-07-08T04:23:32;10.77;;;8.13;;
19193;SDS011;9729;52.296;13.260;2023-07-08T04:25:58;12.20;;;7.30;;
19193;SDS011;9729;52.296;13.260;2023-07-08T04:28:25;10.30;;;8.07;;
19193;SDS011;9729;52.296;13.260;2023-07-08T04:30:53;11.07;;;8.63;;
19193;SDS011;9729;52.296;13.260;2023-07-08T04:33:19;12.60;;;7.60;;
19193;SDS011;9729;52.296;13.260;2023-07-08T04:35:45;7.80;;;7.00;;
19193;SDS011;9729;52.296;13.260;2023-07-08T04:38:14;10.23;;;6.40;;
19193;SDS011;9729;52.296;13.260;2023-07-08T04:40:43;7.90;;;6.77;;
19193;SDS011;9729;52.296;13.260;2023-07-08T04:43:09;8.00;;;5.87;;
19193;SDS011;9729;52.296;13.260;2023-07-08T04:45:37;12.53;;;6.17;;
19193;SDS011;9729;52.296;13.260;2023-07-08T04:48:04;7.80;;;5.67;;
19193;SDS011;9729;52.296;13.260;2023-07-08T04:50:37;9.80;;;5.50;;
19193;SDS011;9729;52.296;13.260;2023-07-08T04:53:04;6.83;;;5.13;;
19193;SDS011;9729;52.296;13.260;2023-07-08T04:55:30;8.43;;;5.90;;
19193;SDS011;9729;52.296;13.260;2023-07-08T04:57:57;6.95;;;5.65;;
19193;SDS011;9729;52.296;13.260;2023-07-08T05:00:23;10.25;;;5.88;;
19193;SDS011;9729;52.296;13.260;2023-07-08T05:02:49;10.10;;;6.03;;
19193;SDS011;9729;52.296;13.260;2023-07-08T05:05:17;9.07;;;5.55;;
19193;SDS011;9729;52.296;13.260;2023-07-08T05:07:43;6.07;;;5.50;;
19193;SDS011;9729;52.296;13.260;2023-07-08T05:10:10;7.60;;;5.40;;
19193;SDS011;9729;52.296;13.260;2023-07-08T05:12:36;11.05;;;5.68;;
19193;SDS011;9729;52.296;13.260;2023-07-08T05:15:03;10.95;;;5.82;;
19193;SDS011;9729;52.296;13.260;2023-07-08T05:17:29;7.65;;;6.10;;
19193;SDS011;9729;52.296;13.260;2023-07-08T05:19:56;6.22;;;5.45;;
19193;SDS011;9729;52.296;13.260;2023-07-08T05:22:27;9.55;;;5.70;;
19193;SDS011;9729;52.296;13.260;2023-07-08T05:24:53;8.40;;;6.57;;
19193;SDS011;9729;52.296;13.260;2023-07-08T05:27:20;6.93;;;5.93;;
19193;SDS011;9729;52.296;13.260;2023-07-08T05:29:47;9.55;;;6.10;;
19193;SDS011;9729;52.296;13.260;2023-07-08T05:32:13;9.38;;;5.85;;
19193;SDS011;9729;52.296;13.260;2023-07-08T05:34:40;7.70;;;5.53;;
19193;SDS011;9729;52.296;13.260;2023-07-08T05:37:06;15.30;;;6.15;;
19193;SDS011;9729;52.296;13.260;2023-07-08T05:39:34;19.67;;;6.25;;
19193;SDS011;9729;52.296;13.260;2023-07-08T05:42:00;10.48;;;5.75;;
19193;SDS011;9729;52.296;13.260;2023-07-08T05:44:26;13.70;;;6.38;;
19193;SDS011;9729;52.296;13.260;2023-07-08T05:46:53;16.67;;;6.00;;
19193;SDS011;9729;52.296;13.260;2023-07-08T05:49:19;7.38;;;5.43;;
19193;SDS011;9729;52.296;13.260;2023-07-08T05:51:45;8.40;;;5.95;;
19193;SDS011;9729;52.296;13.260;2023-07-08T05:54:12;10.27;;;5.55;;
19193;SDS011;9729;52.296;13.260;2023-07-08T05:56:40;10.15;;;5.40;;
19193;SDS011;9729;52.296;13.260;2023-07-08T05:59:06;7.32;;;5.60;;
19193;SDS011;9729;52.296;13.260;2023-07-08T06:01:33;7.32;;;5.47;;
19193;SDS011;9729;52.296;13.260;2023-07-08T06:03:59;10.32;;;6.43;;
19193;SDS011;9729;52.296;13.260;2023-07-08T06:06:25;10.00;;;6.03;;
19193;SDS011;9729;52.296;13.260;2023-07-08T06:08:52;6.80;;;5.68;;
19193;SDS011;9729;52.296;13.260;2023-07-08T06:11:18;9.05;;;6.15;;
19193;SDS011;9729;52.296;13.260;2023-07-08T06:13:48;7.80;;;5.68;;
19193;SDS011;9729;52.296;13.260;2023-07-08T06:16:14;8.50;;;6.18;;
19193;SDS011;9729;52.296;13.260;2023-07-08T06:18:40;8.98;;;6.10;;
19193;SDS011;9729;52.296;13.260;2023-07-08T06:21:07;18.35;;;6.22;;
19193;SDS011;9729;52.296;13.260;2023-07-08T06:23:33;8.18;;;6.45;;
19193;SDS011;9729;52.296;13.260;2023-07-08T06:25:59;11.57;;;6.32;;
19193;SDS011;9729;52.296;13.260;2023-07-08T06:28:26;6.57;;;5.47;;
19193;SDS011;9729;52.296;13.260;2023-07-08T06:30:53;10.38;;;5.68;;
19193;SDS011;9729;52.296;13.260;2023-07-08T06:33:20;7.93;;;5.00;;
19193;SDS011;9729;52.296;13.260;2023-07-08T06:35:46;6.28;;;5.35;;
19193;SDS011;9729;52.296;13.260;2023-07-08T06:38:12;8.35;;;5.50;;
19193;SDS011;9729;52.296;13.260;2023-07-08T06:40:39;6.15;;;5.22;;
19193;SDS011;9729;52.296;13.260;2023-07-08T06:43:05;8.23;;;5.55;;
19193;SDS011;9729;52.296;13.260;2023-07-08T06:45:31;9.43;;;4.80;;
19193;SDS011;9729;52.296;13.260;2023-07-08T06:47:59;8.18;;;5.07;;
19193;SDS011;9729;52.296;13.260;2023-07-08T06:50:25;7.22;;;4.90;;
19193;SDS011;9729;52.296;13.260;2023-07-08T06:52:52;5.35;;;4.78;;
19193;SDS011;9729;52.296;13.260;2023-07-08T06:55:18;6.00;;;4.65;;
19193;SDS011;9729;52.296;13.260;2023-07-08T06:57:45;7.68;;;5.10;;
19193;SDS011;9729;52.296;13.260;2023-07-08T07:00:13;6.35;;;4.75;;
19193;SDS011;9729;52.296;13.260;2023-07-08T07:02:39;10.32;;;5.28;;
19193;SDS011;9729;52.296;13.260;2023-07-08T07:05:08;8.02;;;4.38;;
19193;SDS011;9729;52.296;13.260;2023-07-08T07:07:34;9.45;;;4.90;;
19193;SDS011;9729;52.296;13.260;2023-07-08T07:10:00;7.10;;;4.88;;
19193;SDS011;9729;52.296;13.260;2023-07-08T07:12:28;8.73;;;4.57;;
19193;SDS011;9729;52.296;13.260;2023-07-08T07:14:54;10.95;;;4.95;;
19193;SDS011;9729;52.296;13.260;2023-07-08T07:17:20;7.55;;;4.90;;
19193;SDS011;9729;52.296;13.260;2023-07-08T07:19:47;8.40;;;5.32;;
19193;SDS011;9729;52.296;13.260;2023-07-08T07:22:15;6.72;;;4.60;;
19193;SDS011;9729;52.296;13.260;2023-07-08T07:24:41;10.00;;;4.57;;
19193;SDS011;9729;52.296;13.260;2023-07-08T07:27:08;4.78;;;3.78;;
19193;SDS011;9729;52.296;13.260;2023-07-08T07:29:40;7.45;;;4.20;;
19193;SDS011;9729;52.296;13.260;2023-07-08T07:32:07;5.30;;;4.55;;
19193;SDS011;9729;52.296;13.260;2023-07-08T07:34:34;6.13;;;4.38;;
19193;SDS011;9729;52.296;13.260;2023-07-08T07:37:00;7.82;;;4.57;;
19193;SDS011;9729;52.296;13.260;2023-07-08T07:39:28;7.93;;;4.57;;
19193;SDS011;9729;52.296;13.260;2023-07-08T07:41:54;9.05;;;4.07;;
19193;SDS011;9729;52.296;13.260;2023-07-08T07:44:21;8.18;;;4.65;;
19193;SDS011;9729;52.296;13.260;2023-07-08T07:46:47;8.32;;;4.75;;
19193;SDS011;9729;52.296;13.260;2023-07-08T07:49:13;10.38;;;4.38;;
19193;SDS011;9729;52.296;13.260;2023-07-08T07:51:40;7.32;;;3.70;;
19193;SDS011;9729;52.296;13.260;2023-07-08T07:54:06;9.00;;;4.80;;
19193;SDS011;9729;52.296;13.260;2023-07-08T07:56:34;7.72;;;4.22;;
19193;SDS011;9729;52.296;13.260;2023-07-08T07:59:00;8.00;;;4.40;;
19193;SDS011;9729;52.296;13.260;2023-07-08T08:01:26;9.00;;;4.20;;
19193;SDS011;9729;52.296;13.260;2023-07-08T08:03:53;6.82;;;4.20;;
19193;SDS011;9729;52.296;13.260;2023-07-08T08:06:19;9.75;;;4.47;;
19193;SDS011;9729;52.296;13.260;2023-07-08T08:08:45;7.95;;;4.25;;
19193;SDS011;9729;52.296;13.260;2023-07-08T08:11:12;10.60;;;4.07;;
19193;SDS011;9729;52.296;13.260;2023-07-08T08:13:40;7.72;;;3.72;;
19193;SDS011;9729;52.296;13.260;2023-07-08T08:16:07;7.40;;;3.58;;
19193;SDS011;9729;52.296;13.260;2023-07-08T08:18:33;7.53;;;4.78;;
19193;SDS011;9729;52.296;13.260;2023-07-08T08:21:00;5.55;;;4.30;;
19193;SDS011;9729;52.296;13.260;2023-07-08T08:23:26;5.25;;;4.05;;
19193;SDS011;9729;52.296;13.260;2023-07-08T08:25:52;7.57;;;3.83;;
19193;SDS011;9729;52.296;13.260;2023-07-08T08:28:19;6.90;;;4.20;;
19193;SDS011;9729;52.296;13.260;2023-07-08T08:30:48;8.75;;;4.60;;
19193;SDS011;9729;52.296;13.260;2023-07-08T08:33:15;7.07;;;4.18;;
19193;SDS011;9729;52.296;13.260;2023-07-08T08:35:41;9.30;;;4.10;;
19193;SDS011;9729;52.296;13.260;2023-07-08T08:38:08;6.35;;;3.83;;
19193;SDS011;9729;52.296;13.260;2023-07-08T08:40:34;7.28;;;3.97;;
19193;SDS011;9729;52.296;13.260;2023-07-08T08:43:02;4.05;;;3.20;;
19193;SDS011;9729;52.296;13.260;2023-07-08T08:45:31;6.57;;;4.10;;
19193;SDS011;9729;52.296;13.260;2023-07-08T08:48:02;4.65;;;3.60;;
19193;SDS011;9729;52.296;13.260;2023-07-08T08:50:31;4.75;;;3.03;;
19193;SDS011;9729;52.296;13.260;2023-07-08T08:52:58;3.58;;;2.88;;
19193;SDS011;9729;52.296;13.260;2023-07-08T08:55:25;6.03;;;3.75;;
19193;SDS011;9729;52.296;13.260;2023-07-08T08:57:55;4.80;;;3.08;;
19193;SDS011;9729;52.296;13.260;2023-07-08T09:00:27;3.85;;;3.05;;
19193;SDS011;9729;52.296;13.260;2023-07-08T09:02:57;6.63;;;3.50;;
19193;SDS011;9729;52.296;13.260;2023-07-08T09:05:27;10.52;;;3.63;;
19193;SDS011;9729;52.296;13.260;2023-07-08T09:07:59;8.65;;;3.28;;
19193;SDS011;9729;52.296;13.260;2023-07-08T09:10:31;5.38;;;3.55;;
19193;SDS011;9729;52.296;13.260;2023-07-08T09:13:05;4.80;;;3.20;;
19193;SDS011;9729;52.296;13.260;2023-07-08T09:15:32;5.45;;;2.97;;
19193;SDS011;9729;52.296;13.260;2023-07-08T09:18:01;5.43;;;2.78;;
19193;SDS011;9729;52.296;13.260;2023-07-08T09:20:32;6.50;;;3.15;;
19193;SDS011;9729;52.296;13.260;2023-07-08T09:23:01;3.45;;;2.75;;
19193;SDS011;9729;52.296;13.260;2023-07-08T09:25:30;5.32;;;3.17;;
19193;SDS011;9729;52.296;13.260;2023-07-08T09:27:58;4.32;;;3.00;;
19193;SDS011;9729;52.296;13.260;2023-07-08T09:30:25;9.32;;;3.40;;
19193;SDS011;9729;52.296;13.260;2023-07-08T09:32:53;4.00;;;3.40;;
19193;SDS011;9729;52.296;13.260;2023-07-08T09:35:21;7.70;;;3.70;;
19193;SDS011;9729;52.296;13.260;2023-07-08T09:37:50;3.97;;;2.92;;
19193;SDS011;9729;52.296;13.260;2023-07-08T09:40:19;3.70;;;3.33;;
19193;SDS011;9729;52.296;13.260;2023-07-08T09:42:48;4.32;;;3.28;;
19193;SDS011;9729;52.296;13.260;2023-07-08T09:45:17;4.13;;;3.03;;
19193;SDS011;9729;52.296;13.260;2023-07-08T09:47:44;4.78;;;3.55;;
19193;SDS011;9729;52.296;13.260;2023-07-08T09:50:18;6.50;;;3.08;;
19193;SDS011;9729;52.296;13.260;2023-07-08T09:52:46;7.28;;;3.38;;
19193;SDS011;9729;52.296;13.260;2023-07-08T09:55:14;6.20;;;3.38;;
19193;SDS011;9729;52.296;13.260;2023-07-08T09:57:41;4.38;;;3.22;;
19193;SDS011;9729;52.296;13.260;2023-07-08T10:00:11;4.28;;;3.15;;
19193;SDS011;9729;52.296;13.260;2023-07-08T10:02:40;4.55;;;3.40;;
19193;SDS011;9729;52.296;13.260;2023-07-08T10:05:14;6.20;;;3.05;;
19193;SDS011;9729;52.296;13.260;2023-07-08T10:07:43;10.00;;;3.58;;
19193;SDS011;9729;52.296;13.260;2023-07-08T10:10:12;8.40;;;3.22;;
19193;SDS011;9729;52.296;13.260;2023-07-08T10:12:42;5.68;;;3.40;;
19193;SDS011;9729;52.296;13.260;2023-07-08T10:15:20;7.00;;;3.35;;
19193;SDS011;9729;52.296;13.260;2023-07-08T10:17:48;3.20;;;2.85;;
19193;SDS011;9729;52.296;13.260;2023-07-08T10:20:15;3.75;;;3.40;;
19193;SDS011;9729;52.296;13.260;2023-07-08T10:22:42;4.40;;;3.17;;
19193;SDS011;9729;52.296;13.260;2023-07-08T10:25:20;4.10;;;3.08;;
19193;SDS011;9729;52.296;13.260;2023-07-08T10:27:54;3.92;;;3.40;;
19193;SDS011;9729;52.296;13.260;2023-07-08T10:30:24;3.85;;;3.20;;
19193;SDS011;9729;52.296;13.260;2023-07-08T10:33:05;4.93;;;3.35;;
19193;SDS011;9729;52.296;13.260;2023-07-08T10:35:40;4.70;;;3.47;;
19193;SDS011;9729;52.296;13.260;2023-07-08T10:38:24;6.75;;;2.95;;
19193;SDS011;9729;52.296;13.260;2023-07-08T10:41:03;3.47;;;3.17;;
19193;SDS011;9729;52.296;13.260;2023-07-08T10:43:42;4.60;;;3.47;;
19193;SDS011;9729;52.296;13.260;2023-07-08T10:46:16;6.13;;;3.38;;
19193;SDS011;9729;52.296;13.260;2023-07-08T10:48:58;4.20;;;3.10;;
19193;SDS011;9729;52.296;13.260;2023-07-08T10:51:34;3.92;;;3.10;;
19193;SDS011;9729;52.296;13.260;2023-07-08T10:54:13;3.70;;;3.40;;
19193;SDS011;9729;52.296;13.260;2023-07-08T10:56:50;4.68;;;3.72;;
19193;SDS011;9729;52.296;13.260;2023-07-08T10:59:27;3.45;;;3.15;;
19193;SDS011;9729;52.296;13.260;2023-07-08T11:02:17;5.55;;;3.20;;
19193;SDS011;9729;52.296;13.260;2023-07-08T11:04:54;4.63;;;3.28;;
19193;SDS011;9729;52.296;13.260;2023-07-08T11:07:28;4.18;;;3.53;;
19193;SDS011;9729;52.296;13.260;2023-07-08T11:09:59;5.22;;;2.88;;
19193;SDS011;9729;52.296;13.260;2023-07-08T11:12:29;7.10;;;3.75;;
19193;SDS011;9729;52.296;13.260;2023-07-08T11:15:02;4.70;;;3.55;;
19193;SDS011;9729;52.296;13.260;2023-07-08T11:17:32;6.10;;;3.58;;
19193;SDS011;9729;52.296;13.260;2023-07-08T11:20:03;3.40;;;3.10;;
19193;SDS011;9729;52.296;13.260;2023-07-08T11:22:35;4.32;;;3.70;;
19193;SDS011;9729;52.296;13.260;2023-07-08T11:25:08;3.67;;;3.38;;
19193;SDS011;9729;52.296;13.260;2023-07-08T11:27:43;6.05;;;3.60;;
19193;SDS011;9729;52.296;13.260;2023-07-08T11:30:13;4.15;;;3.50;;
19193;SDS011;9729;52.296;13.260;2023-07-08T11:32:41;7.53;;;3.85;;
19193;SDS011;9729;52.296;13.260;2023-07-08T11:35:13;4.78;;;3.83;;
19193;SDS011;9729;52.296;13.260;2023-07-08T11:37:44;4.50;;;3.63;;
19193;SDS011;9729;52.296;13.260;2023-07-08T11:40:17;3.47;;;3.17;;
19193;SDS011;9729;52.296;13.260;2023-07-08T11:42:48;11.35;;;3.60;;
19193;SDS011;9729;52.296;13.260;2023-07-08T11:45:21;5.30;;;3.72;;
19193;SDS011;9729;52.296;13.260;2023-07-08T11:47:50;4.07;;;3.60;;
19193;SDS011;9729;52.296;13.260;2023-07-08T11:50:19;5.75;;;4.00;;
19193;SDS011;9729;52.296;13.260;2023-07-08T11:52:50;3.67;;;3.30;;
19193;SDS011;9729;52.296;13.260;2023-07-08T11:55:20;3.95;;;3.55;;
19193;SDS011;9729;52.296;13.260;2023-07-08T11:57:52;5.80;;;3.20;;
19193;SDS011;9729;52.296;13.260;2023-07-08T12:00:23;5.70;;;3.53;;
19193;SDS011;9729;52.296;13.260;2023-07-08T12:02:51;7.50;;;3.47;;
19193;SDS011;9729;52.296;13.260;2023-07-08T12:05:28;4.93;;;3.63;;
19193;SDS011;9729;52.296;13.260;2023-07-08T12:07:57;4.10;;;3.17;;
19193;SDS011;9729;52.296;13.260;2023-07-08T12:10:26;5.85;;;3.63;;
19193;SDS011;9729;52.296;13.260;2023-07-08T12:12:55;4.90;;;3.72;;
19193;SDS011;9729;52.296;13.260;2023-07-08T12:15:22;4.75;;;3.78;;
19193;SDS011;9729;52.296;13.260;2023-07-08T12:17:50;6.65;;;3.50;;
19193;SDS011;9729;52.296;13.260;2023-07-08T12:20:18;7.10;;;3.90;;
19193;SDS011;9729;52.296;13.260;2023-07-08T12:22:47;5.05;;;3.50;;
19193;SDS011;9729;52.296;13.260;2023-07-08T12:25:14;5.75;;;3.80;;
19193;SDS011;9729;52.296;13.260;2023-07-08T12:27:42;4.20;;;3.70;;
19193;SDS011;9729;52.296;13.260;2023-07-08T12:30:10;4.22;;;3.53;;
19193;SDS011;9729;52.296;13.260;2023-07-08T12:32:38;3.97;;;3.58;;
19193;SDS011;9729;52.296;13.260;2023-07-08T12:35:07;5.38;;;3.38;;
19193;SDS011;9729;52.296;13.260;2023-07-08T12:37:44;4.53;;;3.70;;
19193;SDS011;9729;52.296;13.260;2023-07-08T12:40:11;5.53;;;3.92;;
19193;SDS011;9729;52.296;13.260;2023-07-08T12:42:38;5.03;;;3.42;;
19193;SDS011;9729;52.296;13.260;2023-07-08T12:45:08;4.88;;;3.53;;
19193;SDS011;9729;52.296;13.260;2023-07-08T12:47:40;4.68;;;3.47;;
19193;SDS011;9729;52.296;13.260;2023-07-08T12:50:08;3.60;;;3.30;;
19193;SDS011;9729;52.296;13.260;2023-07-08T12:52:35;6.88;;;4.22;;
19193;SDS011;9729;52.296;13.260;2023-07-08T12:55:01;4.38;;;3.60;;
19193;SDS011;9729;52.296;13.260;2023-07-08T12:57:28;4.75;;;3.72;;
19193;SDS011;9729;52.296;13.260;2023-07-08T12:59:54;6.07;;;3.50;;
19193;SDS011;9729;52.296;13.260;2023-07-08T13:02:22;6.63;;;3.63;;
19193;SDS011;9729;52.296;13.260;2023-07-08T13:04:53;4.60;;;3.60;;
19193;SDS011;9729;52.296;13.260;2023-07-08T13:07:23;6.28;;;3.85;;
19193;SDS011;9729;52.296;13.260;2023-07-08T13:09:51;4.05;;;3.42;;
19193;SDS011;9729;52.296;13.260;2023-07-08T13:12:18;9.52;;;3.40;;
19193;SDS011;9729;52.296;13.260;2023-07-08T13:14:47;4.03;;;3.45;;
19193;SDS011;9729;52.296;13.260;2023-07-08T13:17:14;6.93;;;3.70;;
19193;SDS011;9729;52.296;13.260;2023-07-08T13:19:42;4.13;;;3.35;;
19193;SDS011;9729;52.296;13.260;2023-07-08T13:22:11;4.80;;;3.63;;
19193;SDS011;9729;52.296;13.260;2023-07-08T13:24:38;6.35;;;3.65;;
19193;SDS011;9729;52.296;13.260;2023-07-08T13:27:12;4.22;;;3.80;;
19193;SDS011;9729;52.296;13.260;2023-07-08T13:29:40;5.20;;;4.22;;
19193;SDS011;9729;52.296;13.260;2023-07-08T13:32:08;3.78;;;3.40;;
19193;SDS011;9729;52.296;13.260;2023-07-08T13:34:36;6.78;;;4.22;;
19193;SDS011;9729;52.296;13.260;2023-07-08T13:37:04;4.70;;;3.60;;
19193;SDS011;9729;52.296;13.260;2023-07-08T13:39:36;5.47;;;3.97;;
19193;SDS011;9729;52.296;13.260;2023-07-08T13:42:03;4.05;;;3.50;;
19193;SDS011;9729;52.296;13.260;2023-07-08T13:44:30;4.93;;;3.60;;
19193;SDS011;9729;52.296;13.260;2023-07-08T13:46:57;8.68;;;3.78;;
19193;SDS011;9729;52.296;13.260;2023-07-08T13:49:25;3.95;;;3.58;;
19193;SDS011;9729;52.296;13.260;2023-07-08T13:52:05;5.78;;;4.07;;
19193;SDS011;9729;52.296;13.260;2023-07-08T13:54:33;5.10;;;3.78;;
19193;SDS011;9729;52.296;13.260;2023-07-08T13:57:02;4.32;;;3.92;;
19193;SDS011;9729;52.296;13.260;2023-07-08T13:59:28;4.70;;;3.67;;
19193;SDS011;9729;52.296;13.260;2023-07-08T14:01:56;5.03;;;3.92;;
19193;SDS011;9729;52.296;13.260;2023-07-08T14:04:25;4.45;;;3.85;;
19193;SDS011;9729;52.296;13.260;2023-07-08T14:06:54;7.75;;;4.22;;
19193;SDS011;9729;52.296;13.260;2023-07-08T14:09:22;3.63;;;3.33;;
19193;SDS011;9729;52.296;13.260;2023-07-08T14:11:49;7.63;;;3.53;;
19193;SDS011;9729;52.296;13.260;2023-07-08T14:14:17;4.30;;;3.88;;
19193;SDS011;9729;52.296;13.260;2023-07-08T14:16:44;4.43;;;3.42;;
19193;SDS011;9729;52.296;13.260;2023-07-08T14:19:12;6.80;;;3.58;;
19193;SDS011;9729;52.296;13.260;2023-07-08T14:21:41;3.72;;;3.35;;
19193;SDS011;9729;52.296;13.260;2023-07-08T14:24:08;5.30;;;3.67;;
19193;SDS011;9729;52.296;13.260;2023-07-08T14:26:38;4.18;;;3.50;;
19193;SDS011;9729;52.296;13.260;2023-07-08T14:29:07;4.45;;;4.05;;
19193;SDS011;9729;52.296;13.260;2023-07-08T14:31:33;4.15;;;3.75;;
19193;SDS011;9729;52.296;13.260;2023-07-08T14:34:00;6.07;;;3.42;;
19193;SDS011;9729;52.296;13.260;2023-07-08T14:36:28;6.15;;;4.00;;
19193;SDS011;9729;52.296;13.260;2023-07-08T14:38:55;4.40;;;3.75;;
19193;SDS011;9729;52.296;13.260;2023-07-08T14:41:22;4.65;;;3.72;;
19193;SDS011;9729;52.296;13.260;2023-07-08T14:43:50;4.70;;;3.72;;
19193;SDS011;9729;52.296;13.260;2023-07-08T14:46:16;4.22;;;3.83;;